Hawley, Texas
Current Conditions -  °F | °C
As of 10:58 AM on Friday 24 Oct 2014 (Local Time) from KDYS Reporting Station
Clear Clear  
Wind Chill: 76°   Ceiling: Unl
Heat Index: 76°   Visibility: 10mi
Dew Point: 61°   Wind: 9mph
Humidity: 60%   Direction: 240°WSW
Pressure: 30.17"   Gusts: NA
Location:  32.61°N, 99.81°W
Report Text: KDYS 241558Z AUTO 24008KT 10SM CLR 24/16 A3017 RMK AO2 SLP184 T02440162
Loading
Personal Weather Stations






























Interactive Weather Map
Tropical Storm Tracking
New forecast layout! Learn more

10-Day Weather Forecast

Advertisements
Track Severe Weather on mobile